sensor_id;sensor_type;location;lat;lon;timestamp;P1;durP1;ratioP1;P2;durP2;ratioP2
40907;SDS011;51055;59.436;24.778;2023-02-12T00:01:24;4.15;;;1.23;;
40907;SDS011;51055;59.436;24.778;2023-02-12T00:06:21;5.82;;;1.25;;
40907;SDS011;51055;59.436;24.778;2023-02-12T00:08:50;7.10;;;1.98;;
40907;SDS011;51055;59.436;24.778;2023-02-12T00:11:21;4.40;;;1.25;;
40907;SDS011;51055;59.436;24.778;2023-02-12T00:13:51;4.45;;;1.10;;
40907;SDS011;51055;59.436;24.778;2023-02-12T00:16:20;5.63;;;1.70;;
40907;SDS011;51055;59.436;24.778;2023-02-12T00:18:54;3.22;;;0.98;;
40907;SDS011;51055;59.436;24.778;2023-02-12T00:21:23;3.83;;;0.98;;
40907;SDS011;51055;59.436;24.778;2023-02-12T00:23:51;5.80;;;1.13;;
40907;SDS011;51055;59.436;24.778;2023-02-12T00:26:19;6.30;;;1.00;;
40907;SDS011;51055;59.436;24.778;2023-02-12T00:28:48;4.82;;;0.90;;
40907;SDS011;51055;59.436;24.778;2023-02-12T00:31:18;4.90;;;1.30;;
40907;SDS011;51055;59.436;24.778;2023-02-12T00:33:48;6.93;;;1.60;;
40907;SDS011;51055;59.436;24.778;2023-02-12T00:36:17;3.23;;;0.97;;
40907;SDS011;51055;59.436;24.778;2023-02-12T00:38:46;5.57;;;1.25;;
40907;SDS011;51055;59.436;24.778;2023-02-12T00:41:15;6.03;;;1.40;;
40907;SDS011;51055;59.436;24.778;2023-02-12T00:43:43;4.88;;;1.40;;
40907;SDS011;51055;59.436;24.778;2023-02-12T00:46:11;5.35;;;1.25;;
40907;SDS011;51055;59.436;24.778;2023-02-12T00:48:39;8.13;;;1.55;;
40907;SDS011;51055;59.436;24.778;2023-02-12T00:51:07;3.63;;;1.10;;
40907;SDS011;51055;59.436;24.778;2023-02-12T00:53:35;5.30;;;1.10;;
40907;SDS011;51055;59.436;24.778;2023-02-12T00:56:03;5.43;;;1.02;;
40907;SDS011;51055;59.436;24.778;2023-02-12T00:58:31;3.10;;;1.13;;
40907;SDS011;51055;59.436;24.778;2023-02-12T01:00:59;4.97;;;1.23;;
40907;SDS011;51055;59.436;24.778;2023-02-12T01:03:27;5.57;;;1.50;;
40907;SDS011;51055;59.436;24.778;2023-02-12T01:05:54;6.28;;;1.60;;
40907;SDS011;51055;59.436;24.778;2023-02-12T01:08:24;5.72;;;1.60;;
40907;SDS011;51055;59.436;24.778;2023-02-12T01:10:56;4.88;;;1.45;;
40907;SDS011;51055;59.436;24.778;2023-02-12T01:13:26;4.20;;;1.20;;
40907;SDS011;51055;59.436;24.778;2023-02-12T01:16:14;4.72;;;1.50;;
40907;SDS011;51055;59.436;24.778;2023-02-12T01:18:45;7.30;;;1.48;;
40907;SDS011;51055;59.436;24.778;2023-02-12T01:23:55;5.13;;;1.42;;
40907;SDS011;51055;59.436;24.778;2023-02-12T01:28:52;5.18;;;1.30;;
40907;SDS011;51055;59.436;24.778;2023-02-12T01:31:25;4.72;;;1.35;;
40907;SDS011;51055;59.436;24.778;2023-02-12T01:33:56;3.83;;;1.33;;
40907;SDS011;51055;59.436;24.778;2023-02-12T01:36:25;6.15;;;1.40;;
40907;SDS011;51055;59.436;24.778;2023-02-12T01:38:54;3.92;;;1.33;;
40907;SDS011;51055;59.436;24.778;2023-02-12T01:41:25;5.20;;;1.35;;
40907;SDS011;51055;59.436;24.778;2023-02-12T01:46:31;3.42;;;1.20;;
40907;SDS011;51055;59.436;24.778;2023-02-12T01:48:59;5.78;;;1.48;;
40907;SDS011;51055;59.436;24.778;2023-02-12T01:51:29;5.63;;;1.33;;
40907;SDS011;51055;59.436;24.778;2023-02-12T01:53:58;4.13;;;1.60;;
40907;SDS011;51055;59.436;24.778;2023-02-12T01:56:29;5.15;;;1.42;;
40907;SDS011;51055;59.436;24.778;2023-02-12T01:58:57;6.70;;;2.15;;
40907;SDS011;51055;59.436;24.778;2023-02-12T02:01:26;4.47;;;1.15;;
40907;SDS011;51055;59.436;24.778;2023-02-12T02:03:58;6.47;;;1.50;;
40907;SDS011;51055;59.436;24.778;2023-02-12T02:06:31;4.65;;;1.50;;
40907;SDS011;51055;59.436;24.778;2023-02-12T02:09:04;7.93;;;1.70;;
40907;SDS011;51055;59.436;24.778;2023-02-12T02:11:32;10.02;;;2.85;;
40907;SDS011;51055;59.436;24.778;2023-02-12T02:14:18;9.45;;;2.33;;
40907;SDS011;51055;59.436;24.778;2023-02-12T02:22:30;7.90;;;1.95;;
40907;SDS011;51055;59.436;24.778;2023-02-12T02:34:07;6.90;;;3.05;;
40907;SDS011;51055;59.436;24.778;2023-02-12T02:36:45;7.55;;;3.08;;
40907;SDS011;51055;59.436;24.778;2023-02-12T02:39:37;9.32;;;3.17;;
40907;SDS011;51055;59.436;24.778;2023-02-12T02:42:20;8.77;;;3.28;;
40907;SDS011;51055;59.436;24.778;2023-02-12T02:44:56;5.53;;;2.40;;
40907;SDS011;51055;59.436;24.778;2023-02-12T02:47:34;6.80;;;2.35;;
40907;SDS011;51055;59.436;24.778;2023-02-12T02:50:14;6.10;;;2.17;;
40907;SDS011;51055;59.436;24.778;2023-02-12T02:52:47;7.80;;;2.40;;
40907;SDS011;51055;59.436;24.778;2023-02-12T02:55:21;7.40;;;2.53;;
40907;SDS011;51055;59.436;24.778;2023-02-12T03:00:30;9.45;;;2.22;;
40907;SDS011;51055;59.436;24.778;2023-02-12T03:03:07;6.90;;;2.03;;
40907;SDS011;51055;59.436;24.778;2023-02-12T03:05:43;4.53;;;1.73;;
40907;SDS011;51055;59.436;24.778;2023-02-12T03:08:16;5.68;;;1.50;;
40907;SDS011;51055;59.436;24.778;2023-02-12T03:11:02;8.30;;;2.10;;
40907;SDS011;51055;59.436;24.778;2023-02-12T03:16:57;4.38;;;1.70;;
40907;SDS011;51055;59.436;24.778;2023-02-12T03:19:32;6.22;;;1.80;;
40907;SDS011;51055;59.436;24.778;2023-02-12T03:22:07;7.00;;;2.05;;
40907;SDS011;51055;59.436;24.778;2023-02-12T03:24:43;5.95;;;1.90;;
40907;SDS011;51055;59.436;24.778;2023-02-12T03:27:30;6.25;;;1.90;;
40907;SDS011;51055;59.436;24.778;2023-02-12T03:30:00;6.22;;;1.50;;
40907;SDS011;51055;59.436;24.778;2023-02-12T03:32:34;8.90;;;1.92;;
40907;SDS011;51055;59.436;24.778;2023-02-12T03:38:44;5.10;;;2.00;;
40907;SDS011;51055;59.436;24.778;2023-02-12T03:41:17;8.35;;;2.15;;
40907;SDS011;51055;59.436;24.778;2023-02-12T03:43:58;7.97;;;2.10;;
40907;SDS011;51055;59.436;24.778;2023-02-12T03:49:20;5.47;;;1.83;;
40907;SDS011;51055;59.436;24.778;2023-02-12T03:51:50;10.55;;;2.55;;
40907;SDS011;51055;59.436;24.778;2023-02-12T03:54:17;5.38;;;1.80;;
40907;SDS011;51055;59.436;24.778;2023-02-12T03:56:48;7.05;;;2.13;;
40907;SDS011;51055;59.436;24.778;2023-02-12T03:59:19;4.57;;;1.75;;
40907;SDS011;51055;59.436;24.778;2023-02-12T04:01:47;6.07;;;2.00;;
40907;SDS011;51055;59.436;24.778;2023-02-12T04:04:15;6.28;;;2.13;;
40907;SDS011;51055;59.436;24.778;2023-02-12T04:06:44;6.85;;;2.60;;
40907;SDS011;51055;59.436;24.778;2023-02-12T04:09:12;6.75;;;1.80;;
40907;SDS011;51055;59.436;24.778;2023-02-12T04:14:21;7.70;;;1.90;;
40907;SDS011;51055;59.436;24.778;2023-02-12T04:16:53;4.80;;;1.50;;
40907;SDS011;51055;59.436;24.778;2023-02-12T04:19:29;6.88;;;1.58;;
40907;SDS011;51055;59.436;24.778;2023-02-12T04:27:09;4.85;;;1.83;;
40907;SDS011;51055;59.436;24.778;2023-02-12T04:29:43;6.85;;;1.73;;
40907;SDS011;51055;59.436;24.778;2023-02-12T04:37:37;5.65;;;1.70;;
40907;SDS011;51055;59.436;24.778;2023-02-12T04:40:05;7.15;;;2.05;;
40907;SDS011;51055;59.436;24.778;2023-02-12T04:45:01;6.55;;;2.20;;
40907;SDS011;51055;59.436;24.778;2023-02-12T04:47:29;6.72;;;2.15;;
40907;SDS011;51055;59.436;24.778;2023-02-12T04:49:56;5.35;;;2.00;;
40907;SDS011;51055;59.436;24.778;2023-02-12T04:52:24;10.93;;;2.67;;
40907;SDS011;51055;59.436;24.778;2023-02-12T04:54:51;7.70;;;2.10;;
40907;SDS011;51055;59.436;24.778;2023-02-12T04:57:18;9.02;;;2.25;;
40907;SDS011;51055;59.436;24.778;2023-02-12T04:59:46;5.30;;;1.88;;
40907;SDS011;51055;59.436;24.778;2023-02-12T05:02:13;8.75;;;2.03;;
40907;SDS011;51055;59.436;24.778;2023-02-12T05:04:40;7.88;;;2.17;;
40907;SDS011;51055;59.436;24.778;2023-02-12T05:07:07;10.27;;;2.15;;
40907;SDS011;51055;59.436;24.778;2023-02-12T05:09:35;6.82;;;2.20;;
40907;SDS011;51055;59.436;24.778;2023-02-12T05:12:02;7.05;;;1.85;;
40907;SDS011;51055;59.436;24.778;2023-02-12T05:14:29;6.90;;;2.10;;
40907;SDS011;51055;59.436;24.778;2023-02-12T05:16:57;7.75;;;1.88;;
40907;SDS011;51055;59.436;24.778;2023-02-12T05:19:24;8.35;;;2.83;;
40907;SDS011;51055;59.436;24.778;2023-02-12T05:21:51;7.80;;;1.83;;
40907;SDS011;51055;59.436;24.778;2023-02-12T05:24:18;6.15;;;2.10;;
40907;SDS011;51055;59.436;24.778;2023-02-12T05:26:46;7.15;;;1.90;;
40907;SDS011;51055;59.436;24.778;2023-02-12T05:29:14;6.35;;;2.00;;
40907;SDS011;51055;59.436;24.778;2023-02-12T05:31:42;11.85;;;2.33;;
40907;SDS011;51055;59.436;24.778;2023-02-12T05:34:10;11.35;;;2.72;;
40907;SDS011;51055;59.436;24.778;2023-02-12T05:36:37;12.97;;;2.40;;
40907;SDS011;51055;59.436;24.778;2023-02-12T05:39:06;6.40;;;1.75;;
40907;SDS011;51055;59.436;24.778;2023-02-12T05:41:34;8.60;;;2.40;;
40907;SDS011;51055;59.436;24.778;2023-02-12T05:44:02;8.02;;;2.17;;
40907;SDS011;51055;59.436;24.778;2023-02-12T05:46:29;9.03;;;2.70;;
40907;SDS011;51055;59.436;24.778;2023-02-12T05:48:57;12.63;;;2.50;;
40907;SDS011;51055;59.436;24.778;2023-02-12T05:51:25;12.38;;;2.45;;
40907;SDS011;51055;59.436;24.778;2023-02-12T05:53:56;9.40;;;2.40;;
40907;SDS011;51055;59.436;24.778;2023-02-12T05:56:26;7.40;;;2.10;;
40907;SDS011;51055;59.436;24.778;2023-02-12T06:01:22;5.63;;;2.20;;
40907;SDS011;51055;59.436;24.778;2023-02-12T06:03:50;5.95;;;2.20;;
40907;SDS011;51055;59.436;24.778;2023-02-12T06:06:17;8.93;;;3.47;;
40907;SDS011;51055;59.436;24.778;2023-02-12T06:08:48;11.48;;;3.40;;
40907;SDS011;51055;59.436;24.778;2023-02-12T06:11:16;9.10;;;2.63;;
40907;SDS011;51055;59.436;24.778;2023-02-12T06:13:43;7.00;;;2.30;;
40907;SDS011;51055;59.436;24.778;2023-02-12T06:16:26;7.95;;;2.90;;
40907;SDS011;51055;59.436;24.778;2023-02-12T06:18:54;9.15;;;2.45;;
40907;SDS011;51055;59.436;24.778;2023-02-12T06:21:25;11.57;;;2.90;;
40907;SDS011;51055;59.436;24.778;2023-02-12T06:23:53;9.40;;;2.80;;
40907;SDS011;51055;59.436;24.778;2023-02-12T06:26:21;10.90;;;3.53;;
40907;SDS011;51055;59.436;24.778;2023-02-12T06:28:49;9.73;;;3.08;;
40907;SDS011;51055;59.436;24.778;2023-02-12T06:33:44;9.98;;;2.75;;
40907;SDS011;51055;59.436;24.778;2023-02-12T06:36:11;11.43;;;3.03;;
40907;SDS011;51055;59.436;24.778;2023-02-12T06:38:39;9.45;;;3.00;;
40907;SDS011;51055;59.436;24.778;2023-02-12T06:41:06;9.95;;;2.97;;
40907;SDS011;51055;59.436;24.778;2023-02-12T06:43:33;8.15;;;2.60;;
40907;SDS011;51055;59.436;24.778;2023-02-12T06:46:01;9.88;;;2.90;;
40907;SDS011;51055;59.436;24.778;2023-02-12T06:48:29;7.95;;;2.70;;
40907;SDS011;51055;59.436;24.778;2023-02-12T06:51:03;8.30;;;3.40;;
40907;SDS011;51055;59.436;24.778;2023-02-12T06:53:31;9.25;;;3.35;;
40907;SDS011;51055;59.436;24.778;2023-02-12T06:56:00;9.68;;;3.78;;
40907;SDS011;51055;59.436;24.778;2023-02-12T07:00:55;13.05;;;3.97;;
40907;SDS011;51055;59.436;24.778;2023-02-12T07:03:23;14.57;;;8.07;;
40907;SDS011;51055;59.436;24.778;2023-02-12T07:05:51;11.65;;;4.38;;
40907;SDS011;51055;59.436;24.778;2023-02-12T07:08:18;17.65;;;8.07;;
40907;SDS011;51055;59.436;24.778;2023-02-12T07:10:47;13.45;;;6.35;;
40907;SDS011;51055;59.436;24.778;2023-02-12T07:13:14;14.18;;;3.97;;
40907;SDS011;51055;59.436;24.778;2023-02-12T07:15:42;10.25;;;3.47;;
40907;SDS011;51055;59.436;24.778;2023-02-12T07:18:09;9.82;;;3.75;;
40907;SDS011;51055;59.436;24.778;2023-02-12T07:20:36;11.05;;;3.80;;
40907;SDS011;51055;59.436;24.778;2023-02-12T07:23:03;10.95;;;4.13;;
40907;SDS011;51055;59.436;24.778;2023-02-12T07:25:30;12.20;;;3.85;;
40907;SDS011;51055;59.436;24.778;2023-02-12T07:27:58;13.68;;;4.10;;
40907;SDS011;51055;59.436;24.778;2023-02-12T07:30:26;9.02;;;3.30;;
40907;SDS011;51055;59.436;24.778;2023-02-12T07:32:53;12.60;;;5.47;;
40907;SDS011;51055;59.436;24.778;2023-02-12T07:35:21;14.13;;;4.53;;
40907;SDS011;51055;59.436;24.778;2023-02-12T07:37:48;19.15;;;8.73;;
40907;SDS011;51055;59.436;24.778;2023-02-12T07:40:16;20.63;;;6.45;;
40907;SDS011;51055;59.436;24.778;2023-02-12T07:42:43;17.05;;;6.38;;
40907;SDS011;51055;59.436;24.778;2023-02-12T07:45:11;11.35;;;4.55;;
40907;SDS011;51055;59.436;24.778;2023-02-12T07:47:38;11.77;;;4.45;;
40907;SDS011;51055;59.436;24.778;2023-02-12T07:50:06;11.02;;;3.75;;
40907;SDS011;51055;59.436;24.778;2023-02-12T07:52:34;10.10;;;3.80;;
40907;SDS011;51055;59.436;24.778;2023-02-12T07:55:02;10.65;;;3.65;;
40907;SDS011;51055;59.436;24.778;2023-02-12T07:57:29;8.73;;;3.97;;
40907;SDS011;51055;59.436;24.778;2023-02-12T07:59:56;12.07;;;4.32;;
40907;SDS011;51055;59.436;24.778;2023-02-12T08:02:24;7.75;;;3.33;;
40907;SDS011;51055;59.436;24.778;2023-02-12T08:04:55;17.85;;;5.32;;
40907;SDS011;51055;59.436;24.778;2023-02-12T08:07:22;9.60;;;3.60;;
40907;SDS011;51055;59.436;24.778;2023-02-12T08:09:50;11.35;;;3.72;;
40907;SDS011;51055;59.436;24.778;2023-02-12T08:12:17;10.15;;;3.42;;
40907;SDS011;51055;59.436;24.778;2023-02-12T08:14:45;8.55;;;3.38;;
40907;SDS011;51055;59.436;24.778;2023-02-12T08:17:12;14.75;;;3.80;;
40907;SDS011;51055;59.436;24.778;2023-02-12T08:19:39;9.77;;;3.70;;
40907;SDS011;51055;59.436;24.778;2023-02-12T08:22:07;8.32;;;3.10;;
40907;SDS011;51055;59.436;24.778;2023-02-12T08:24:34;8.00;;;2.83;;
40907;SDS011;51055;59.436;24.778;2023-02-12T08:27:02;11.80;;;3.22;;
40907;SDS011;51055;59.436;24.778;2023-02-12T08:29:30;8.55;;;2.97;;
40907;SDS011;51055;59.436;24.778;2023-02-12T08:32:01;8.55;;;3.17;;
40907;SDS011;51055;59.436;24.778;2023-02-12T08:34:30;10.40;;;2.80;;
40907;SDS011;51055;59.436;24.778;2023-02-12T08:36:57;7.35;;;2.90;;
40907;SDS011;51055;59.436;24.778;2023-02-12T08:39:28;13.23;;;3.27;;
40907;SDS011;51055;59.436;24.778;2023-02-12T08:41:56;7.75;;;2.70;;
40907;SDS011;51055;59.436;24.778;2023-02-12T08:44:23;9.13;;;2.78;;
40907;SDS011;51055;59.436;24.778;2023-02-12T08:46:51;8.63;;;3.13;;
40907;SDS011;51055;59.436;24.778;2023-02-12T08:49:20;10.90;;;3.42;;
40907;SDS011;51055;59.436;24.778;2023-02-12T08:51:48;7.50;;;2.55;;
40907;SDS011;51055;59.436;24.778;2023-02-12T08:54:16;9.95;;;2.75;;
40907;SDS011;51055;59.436;24.778;2023-02-12T08:59:12;10.80;;;3.33;;
40907;SDS011;51055;59.436;24.778;2023-02-12T09:01:40;7.77;;;2.07;;
40907;SDS011;51055;59.436;24.778;2023-02-12T09:04:14;10.82;;;3.20;;
40907;SDS011;51055;59.436;24.778;2023-02-12T09:06:44;11.20;;;3.20;;
40907;SDS011;51055;59.436;24.778;2023-02-12T09:09:11;5.00;;;1.92;;
40907;SDS011;51055;59.436;24.778;2023-02-12T09:11:39;10.13;;;2.53;;
40907;SDS011;51055;59.436;24.778;2023-02-12T09:14:07;13.80;;;2.90;;
40907;SDS011;51055;59.436;24.778;2023-02-12T09:16:36;8.65;;;2.53;;
40907;SDS011;51055;59.436;24.778;2023-02-12T09:19:04;8.02;;;2.50;;
40907;SDS011;51055;59.436;24.778;2023-02-12T09:21:31;11.02;;;2.85;;
40907;SDS011;51055;59.436;24.778;2023-02-12T09:23:59;8.10;;;2.88;;
40907;SDS011;51055;59.436;24.778;2023-02-12T09:26:26;8.90;;;3.00;;
40907;SDS011;51055;59.436;24.778;2023-02-12T09:28:54;9.32;;;2.83;;
40907;SDS011;51055;59.436;24.778;2023-02-12T09:31:23;13.15;;;3.30;;
40907;SDS011;51055;59.436;24.778;2023-02-12T09:34:03;9.32;;;3.03;;
40907;SDS011;51055;59.436;24.778;2023-02-12T09:36:31;10.05;;;2.92;;
40907;SDS011;51055;59.436;24.778;2023-02-12T09:38:58;10.27;;;2.17;;
40907;SDS011;51055;59.436;24.778;2023-02-12T09:44:31;8.50;;;3.28;;
40907;SDS011;51055;59.436;24.778;2023-02-12T09:47:03;8.18;;;2.10;;
40907;SDS011;51055;59.436;24.778;2023-02-12T09:52:03;8.73;;;2.67;;
40907;SDS011;51055;59.436;24.778;2023-02-12T09:54:40;5.65;;;1.90;;
40907;SDS011;51055;59.436;24.778;2023-02-12T09:57:27;7.20;;;1.90;;
40907;SDS011;51055;59.436;24.778;2023-02-12T10:00:02;7.75;;;1.90;;
40907;SDS011;51055;59.436;24.778;2023-02-12T10:02:30;8.95;;;1.83;;
40907;SDS011;51055;59.436;24.778;2023-02-12T10:05:00;6.07;;;1.90;;
40907;SDS011;51055;59.436;24.778;2023-02-12T10:12:39;9.73;;;2.60;;
40907;SDS011;51055;59.436;24.778;2023-02-12T10:17:41;5.57;;;1.83;;
40907;SDS011;51055;59.436;24.778;2023-02-12T10:28:06;11.60;;;2.97;;
40907;SDS011;51055;59.436;24.778;2023-02-12T10:33:24;9.70;;;2.75;;
40907;SDS011;51055;59.436;24.778;2023-02-12T10:36:01;9.43;;;2.70;;
40907;SDS011;51055;59.436;24.778;2023-02-12T10:38:31;9.85;;;2.35;;
40907;SDS011;51055;59.436;24.778;2023-02-12T10:41:01;5.72;;;2.30;;
40907;SDS011;51055;59.436;24.778;2023-02-12T10:43:28;10.65;;;2.80;;
40907;SDS011;51055;59.436;24.778;2023-02-12T10:45:56;11.32;;;3.22;;
40907;SDS011;51055;59.436;24.778;2023-02-12T10:48:32;9.10;;;2.13;;
40907;SDS011;51055;59.436;24.778;2023-02-12T10:53:36;6.32;;;2.03;;
40907;SDS011;51055;59.436;24.778;2023-02-12T10:58:31;6.78;;;2.20;;
40907;SDS011;51055;59.436;24.778;2023-02-12T11:00:58;5.88;;;1.92;;
40907;SDS011;51055;59.436;24.778;2023-02-12T11:03:28;7.03;;;1.63;;
40907;SDS011;51055;59.436;24.778;2023-02-12T11:06:07;7.88;;;1.88;;
40907;SDS011;51055;59.436;24.778;2023-02-12T11:08:37;6.05;;;2.10;;
40907;SDS011;51055;59.436;24.778;2023-02-12T11:11:09;8.07;;;2.03;;
40907;SDS011;51055;59.436;24.778;2023-02-12T11:13:43;6.82;;;2.20;;
40907;SDS011;51055;59.436;24.778;2023-02-12T11:16:11;6.38;;;2.38;;
40907;SDS011;51055;59.436;24.778;2023-02-12T11:18:39;9.15;;;2.38;;
40907;SDS011;51055;59.436;24.778;2023-02-12T11:21:11;9.95;;;2.20;;
40907;SDS011;51055;59.436;24.778;2023-02-12T11:23:39;9.15;;;2.55;;
40907;SDS011;51055;59.436;24.778;2023-02-12T11:31:22;6.95;;;1.80;;
40907;SDS011;51055;59.436;24.778;2023-02-12T11:36:30;8.20;;;2.30;;
40907;SDS011;51055;59.436;24.778;2023-02-12T11:41:33;7.75;;;1.88;;
40907;SDS011;51055;59.436;24.778;2023-02-12T11:44:09;9.00;;;2.28;;
40907;SDS011;51055;59.436;24.778;2023-02-12T11:46:38;6.13;;;2.13;;
40907;SDS011;51055;59.436;24.778;2023-02-12T11:49:06;6.50;;;1.77;;
40907;SDS011;51055;59.436;24.778;2023-02-12T11:51:35;8.57;;;2.25;;
40907;SDS011;51055;59.436;24.778;2023-02-12T11:54:03;7.18;;;2.33;;
40907;SDS011;51055;59.436;24.778;2023-02-12T11:56:39;11.82;;;2.60;;
40907;SDS011;51055;59.436;24.778;2023-02-12T11:59:41;6.72;;;2.15;;
40907;SDS011;51055;59.436;24.778;2023-02-12T12:04:47;8.05;;;2.15;;
40907;SDS011;51055;59.436;24.778;2023-02-12T12:07:26;6.57;;;2.00;;
40907;SDS011;51055;59.436;24.778;2023-02-12T12:12:47;10.00;;;2.20;;
40907;SDS011;51055;59.436;24.778;2023-02-12T12:15:20;6.32;;;2.08;;
40907;SDS011;51055;59.436;24.778;2023-02-12T12:26:56;9.30;;;1.92;;
40907;SDS011;51055;59.436;24.778;2023-02-12T12:29:43;6.28;;;1.80;;
40907;SDS011;51055;59.436;24.778;2023-02-12T12:32:12;8.23;;;2.22;;
40907;SDS011;51055;59.436;24.778;2023-02-12T12:34:41;10.15;;;3.28;;
40907;SDS011;51055;59.436;24.778;2023-02-12T12:50:05;10.85;;;2.40;;
40907;SDS011;51055;59.436;24.778;2023-02-12T12:57:58;12.45;;;2.55;;
40907;SDS011;51055;59.436;24.778;2023-02-12T13:00:39;9.25;;;2.55;;
40907;SDS011;51055;59.436;24.778;2023-02-12T13:16:46;8.70;;;2.67;;
40907;SDS011;51055;59.436;24.778;2023-02-12T13:21:55;11.45;;;2.80;;
40907;SDS011;51055;59.436;24.778;2023-02-12T13:24:29;8.25;;;2.53;;
40907;SDS011;51055;59.436;24.778;2023-02-12T13:27:06;11.43;;;3.03;;
40907;SDS011;51055;59.436;24.778;2023-02-12T13:29:36;10.77;;;2.75;;
40907;SDS011;51055;59.436;24.778;2023-02-12T13:34:33;9.18;;;2.40;;
40907;SDS011;51055;59.436;24.778;2023-02-12T13:37:02;6.88;;;2.08;;
40907;SDS011;51055;59.436;24.778;2023-02-12T13:39:31;6.88;;;2.33;;
40907;SDS011;51055;59.436;24.778;2023-02-12T13:44:36;8.15;;;2.40;;
40907;SDS011;51055;59.436;24.778;2023-02-12T13:47:16;12.85;;;2.78;;
40907;SDS011;51055;59.436;24.778;2023-02-12T13:54:50;10.35;;;2.70;;
40907;SDS011;51055;59.436;24.778;2023-02-12T13:57:19;9.93;;;2.63;;
40907;SDS011;51055;59.436;24.778;2023-02-12T14:07:19;6.93;;;2.80;;
40907;SDS011;51055;59.436;24.778;2023-02-12T14:14:52;12.23;;;3.20;;
40907;SDS011;51055;59.436;24.778;2023-02-12T14:19:55;12.38;;;4.05;;
40907;SDS011;51055;59.436;24.778;2023-02-12T14:25:24;10.25;;;3.28;;
40907;SDS011;51055;59.436;24.778;2023-02-12T14:27:49;12.77;;;3.10;;
40907;SDS011;51055;59.436;24.778;2023-02-12T14:35:34;11.27;;;3.00;;
40907;SDS011;51055;59.436;24.778;2023-02-12T14:40:46;13.57;;;3.53;;
40907;SDS011;51055;59.436;24.778;2023-02-12T14:43:33;12.38;;;3.00;;
40907;SDS011;51055;59.436;24.778;2023-02-12T14:51:42;12.13;;;3.72;;
40907;SDS011;51055;59.436;24.778;2023-02-12T14:54:15;17.42;;;3.85;;
40907;SDS011;51055;59.436;24.778;2023-02-12T14:56:45;11.00;;;3.30;;
40907;SDS011;51055;59.436;24.778;2023-02-12T14:59:15;13.45;;;4.10;;
40907;SDS011;51055;59.436;24.778;2023-02-12T15:01:44;18.65;;;4.57;;
40907;SDS011;51055;59.436;24.778;2023-02-12T15:04:34;14.73;;;4.10;;
40907;SDS011;51055;59.436;24.778;2023-02-12T15:07:02;11.43;;;3.88;;
40907;SDS011;51055;59.436;24.778;2023-02-12T15:12:28;18.55;;;5.35;;
40907;SDS011;51055;59.436;24.778;2023-02-12T15:15:06;14.82;;;3.85;;
40907;SDS011;51055;59.436;24.778;2023-02-12T15:17:38;14.23;;;4.55;;
40907;SDS011;51055;59.436;24.778;2023-02-12T15:20:12;15.45;;;4.00;;
40907;SDS011;51055;59.436;24.778;2023-02-12T15:22:43;13.20;;;4.20;;
40907;SDS011;51055;59.436;24.778;2023-02-12T15:25:14;12.90;;;4.32;;
40907;SDS011;51055;59.436;24.778;2023-02-12T15:27:43;15.88;;;4.32;;
40907;SDS011;51055;59.436;24.778;2023-02-12T15:30:17;15.87;;;4.30;;
40907;SDS011;51055;59.436;24.778;2023-02-12T15:32:55;17.55;;;4.63;;
40907;SDS011;51055;59.436;24.778;2023-02-12T15:35:28;20.65;;;5.03;;
40907;SDS011;51055;59.436;24.778;2023-02-12T15:37:57;14.85;;;4.22;;
40907;SDS011;51055;59.436;24.778;2023-02-12T15:40:27;17.85;;;5.03;;
40907;SDS011;51055;59.436;24.778;2023-02-12T15:42:56;13.40;;;3.40;;
40907;SDS011;51055;59.436;24.778;2023-02-12T15:45:25;17.02;;;5.07;;
40907;SDS011;51055;59.436;24.778;2023-02-12T15:47:56;13.50;;;4.22;;
40907;SDS011;51055;59.436;24.778;2023-02-12T15:50:24;14.55;;;4.88;;
40907;SDS011;51055;59.436;24.778;2023-02-12T15:52:53;15.82;;;3.80;;
40907;SDS011;51055;59.436;24.778;2023-02-12T15:57:52;18.42;;;4.47;;
40907;SDS011;51055;59.436;24.778;2023-02-12T16:02:50;16.85;;;4.50;;
40907;SDS011;51055;59.436;24.778;2023-02-12T16:05:18;14.88;;;4.95;;
40907;SDS011;51055;59.436;24.778;2023-02-12T16:07:46;14.95;;;4.47;;
40907;SDS011;51055;59.436;24.778;2023-02-12T16:10:17;23.15;;;5.57;;
40907;SDS011;51055;59.436;24.778;2023-02-12T16:12:46;21.73;;;5.45;;
40907;SDS011;51055;59.436;24.778;2023-02-12T16:15:24;19.20;;;4.70;;
40907;SDS011;51055;59.436;24.778;2023-02-12T16:17:52;18.75;;;6.20;;
40907;SDS011;51055;59.436;24.778;2023-02-12T16:20:22;22.90;;;5.85;;
40907;SDS011;51055;59.436;24.778;2023-02-12T16:22:51;20.27;;;5.63;;
40907;SDS011;51055;59.436;24.778;2023-02-12T16:27:52;20.05;;;5.00;;
40907;SDS011;51055;59.436;24.778;2023-02-12T16:30:22;22.17;;;6.13;;
40907;SDS011;51055;59.436;24.778;2023-02-12T16:32:50;23.35;;;6.28;;
40907;SDS011;51055;59.436;24.778;2023-02-12T16:37:49;28.38;;;6.53;;
40907;SDS011;51055;59.436;24.778;2023-02-12T16:40:18;18.52;;;6.30;;
40907;SDS011;51055;59.436;24.778;2023-02-12T16:47:49;23.73;;;6.15;;
40907;SDS011;51055;59.436;24.778;2023-02-12T16:50:17;25.00;;;4.82;;
40907;SDS011;51055;59.436;24.778;2023-02-12T16:52:45;23.50;;;6.68;;
40907;SDS011;51055;59.436;24.778;2023-02-12T16:55:15;21.38;;;6.18;;
40907;SDS011;51055;59.436;24.778;2023-02-12T16:57:43;26.38;;;7.22;;
40907;SDS011;51055;59.436;24.778;2023-02-12T17:00:14;25.57;;;6.77;;
40907;SDS011;51055;59.436;24.778;2023-02-12T17:02:43;25.60;;;7.15;;
40907;SDS011;51055;59.436;24.778;2023-02-12T17:05:11;25.17;;;6.25;;
40907;SDS011;51055;59.436;24.778;2023-02-12T17:07:39;27.45;;;6.45;;
40907;SDS011;51055;59.436;24.778;2023-02-12T17:10:07;31.42;;;8.07;;
40907;SDS011;51055;59.436;24.778;2023-02-12T17:12:46;22.83;;;5.75;;
40907;SDS011;51055;59.436;24.778;2023-02-12T17:15:16;30.27;;;6.78;;
40907;SDS011;51055;59.436;24.778;2023-02-12T17:17:46;27.98;;;5.95;;
40907;SDS011;51055;59.436;24.778;2023-02-12T17:20:13;23.65;;;7.65;;
40907;SDS011;51055;59.436;24.778;2023-02-12T17:22:44;22.48;;;6.32;;
40907;SDS011;51055;59.436;24.778;2023-02-12T17:25:14;27.50;;;6.75;;
40907;SDS011;51055;59.436;24.778;2023-02-12T17:27:42;32.72;;;7.90;;
40907;SDS011;51055;59.436;24.778;2023-02-12T17:30:18;25.27;;;6.82;;
40907;SDS011;51055;59.436;24.778;2023-02-12T17:32:47;21.20;;;5.95;;
40907;SDS011;51055;59.436;24.778;2023-02-12T17:35:17;30.02;;;6.97;;
40907;SDS011;51055;59.436;24.778;2023-02-12T17:37:45;23.08;;;6.00;;
40907;SDS011;51055;59.436;24.778;2023-02-12T17:40:14;21.90;;;5.78;;
40907;SDS011;51055;59.436;24.778;2023-02-12T17:42:42;20.33;;;5.18;;
40907;SDS011;51055;59.436;24.778;2023-02-12T17:45:10;19.15;;;6.00;;
40907;SDS011;51055;59.436;24.778;2023-02-12T17:47:37;27.65;;;6.13;;
40907;SDS011;51055;59.436;24.778;2023-02-12T17:50:10;19.83;;;5.60;;
40907;SDS011;51055;59.436;24.778;2023-02-12T17:52:38;26.95;;;7.13;;
40907;SDS011;51055;59.436;24.778;2023-02-12T17:55:06;20.67;;;5.95;;
40907;SDS011;51055;59.436;24.778;2023-02-12T17:57:34;26.52;;;6.57;;
40907;SDS011;51055;59.436;24.778;2023-02-12T18:00:02;24.35;;;6.13;;
40907;SDS011;51055;59.436;24.778;2023-02-12T18:04:58;27.90;;;6.97;;
40907;SDS011;51055;59.436;24.778;2023-02-12T18:07:25;19.90;;;5.80;;
40907;SDS011;51055;59.436;24.778;2023-02-12T18:09:53;25.27;;;6.47;;
40907;SDS011;51055;59.436;24.778;2023-02-12T18:12:21;23.50;;;5.78;;
40907;SDS011;51055;59.436;24.778;2023-02-12T18:14:48;25.20;;;6.03;;
40907;SDS011;51055;59.436;24.778;2023-02-12T18:17:16;22.42;;;5.18;;
40907;SDS011;51055;59.436;24.778;2023-02-12T18:19:44;25.38;;;6.68;;